Meramec River (Missouri), Steelville (07013000)

StateMissouriLatestGood (709 cfs)
RiverMeramec RiverRatingObservedEstimated
Updated2020-04-07 20:30 (25 minutes ago)Flood - The river is flooding. Obstacles can be treacherous or deadly. The river should be avoided at this stage for casual trips and definitely for the inexperienced. Trips should be attempted only with protective gear and equipment.Flood(none)2133
Discharge709 cfs (median: 531 cfs)High - The river is high and potentially dangerous, especially for the young and / or inexperienced. Normal stream obstacles are sometimes difficult to navigate. Extended distances can be attempted, but canoe travel may not be advisable.High(none)983
Height2.53 feetGood - Conditions are ideal for a canoe or kayak. Boats typically will drag on fewer than one-quarter of riffles, if at all, and portages are unnecessary or rare. Normal float lengths can be attempted without a problem.Good(none)523
TrendRising (falling over 24 hours)Low - River is low but can still be floated. Some riffles are okay but most come with significant dragging and might need a portage. Float lengths should be reduced to accommodate low flow, dragging, and portages.Low(none)337
USGSExternal icon USGS Site (External icon Google Maps)Poor - River is too low to float comfortably. Most or all riffles will drag or must be portaged and some obstacles (such as slick shelf rock) cause undue problems. Avoid the river at this stage for casual paddling trips.Poor(none)178

Trending Data

Plot Image

Trips for Meramec River (Missouri), Steelville (07013000)

DateStartEndDistanceConditionDischargeHeightFishingDetails

A total of 0 rows are displayed.

Condition Descriptions

Fishing Conditions

Fish Species

Notes

Classic Trip List

The classic River Trips application is still available for use. It is updated with the new system using a data retrofit. It is no longer maintained. The original River Trips application is no longer updated (as of 1 Dec 2016) but can be checked for errors or for the condition of the data before it was converted to the new system.

Gauge Data Table

ObservationHeightDischargeMaximum
Discharge
Minimum
Discharge
Mean
Discharge
P05P10P20P25P50
(Median)
P75P80P90P95
2020-04-07 20:30 2.53 709 7600 (1965) 122 (1956) 883 215 245 327 367 531 992 1210 1530 2930
2020-04-07 20:00 2.52 703 7600 (1965) 122 (1956) 883 215 245 327 367 531 992 1210 1530 2930
2020-04-07 19:30 2.53 709 7600 (1965) 122 (1956) 883 215 245 327 367 531 992 1210 1530 2930
2020-04-07 19:00 2.53 709 7600 (1965) 122 (1956) 883 215 245 327 367 531 992 1210 1530 2930
2020-04-07 18:30 2.53 709 7600 (1965) 122 (1956) 883 215 245 327 367 531 992 1210 1530 2930
2020-04-07 18:00 2.53 709 7600 (1965) 122 (1956) 883 215 245 327 367 531 992 1210 1530 2930
2020-04-07 17:30 2.53 709 7600 (1965) 122 (1956) 883 215 245 327 367 531 992 1210 1530 2930
2020-04-07 17:00 2.53 709 7600 (1965) 122 (1956) 883 215 245 327 367 531 992 1210 1530 2930
2020-04-07 16:30 2.53 709 7600 (1965) 122 (1956) 883 215 245 327 367 531 992 1210 1530 2930
2020-04-07 16:00 2.52 703 7600 (1965) 122 (1956) 883 215 245 327 367 531 992 1210 1530 2930
2020-04-07 15:30 2.54 714 7600 (1965) 122 (1956) 883 215 245 327 367 531 992 1210 1530 2930
2020-04-07 15:00 2.53 709 7600 (1965) 122 (1956) 883 215 245 327 367 531 992 1210 1530 2930
2020-04-07 14:30 2.52 703 7600 (1965) 122 (1956) 883 215 245 327 367 531 992 1210 1530 2930
2020-04-07 14:00 2.54 714 7600 (1965) 122 (1956) 883 215 245 327 367 531 992 1210 1530 2930
2020-04-07 13:30 2.53 709 7600 (1965) 122 (1956) 883 215 245 327 367 531 992 1210 1530 2930
2020-04-07 13:00 2.53 709 7600 (1965) 122 (1956) 883 215 245 327 367 531 992 1210 1530 2930
2020-04-07 12:30 2.54 714 7600 (1965) 122 (1956) 883 215 245 327 367 531 992 1210 1530 2930
2020-04-07 12:00 2.54 714 7600 (1965) 122 (1956) 883 215 245 327 367 531 992 1210 1530 2930
2020-04-07 11:30 2.55 720 7600 (1965) 122 (1956) 883 215 245 327 367 531 992 1210 1530 2930
2020-04-07 11:00 2.55 720 7600 (1965) 122 (1956) 883 215 245 327 367 531 992 1210 1530 2930
2020-04-07 10:30 2.55 720 7600 (1965) 122 (1956) 883 215 245 327 367 531 992 1210 1530 2930
2020-04-07 10:00 2.55 720 7600 (1965) 122 (1956) 883 215 245 327 367 531 992 1210 1530 2930
2020-04-07 09:30 2.54 714 7600 (1965) 122 (1956) 883 215 245 327 367 531 992 1210 1530 2930
2020-04-07 09:00 2.56 725 7600 (1965) 122 (1956) 883 215 245 327 367 531 992 1210 1530 2930
2020-04-07 08:30 2.56 725 7600 (1965) 122 (1956) 883 215 245 327 367 531 992 1210 1530 2930
2020-04-07 08:00 2.55 720 7600 (1965) 122 (1956) 883 215 245 327 367 531 992 1210 1530 2930
2020-04-07 07:30 2.56 725 7600 (1965) 122 (1956) 883 215 245 327 367 531 992 1210 1530 2930
2020-04-07 07:00 2.56 725 7600 (1965) 122 (1956) 883 215 245 327 367 531 992 1210 1530 2930
2020-04-07 06:30 2.56 725 7600 (1965) 122 (1956) 883 215 245 327 367 531 992 1210 1530 2930
2020-04-07 06:00 2.57 731 7600 (1965) 122 (1956) 883 215 245 327 367 531 992 1210 1530 2930
2020-04-07 05:30 2.56 725 7600 (1965) 122 (1956) 883 215 245 327 367 531 992 1210 1530 2930
2020-04-07 05:00 2.56 725 7600 (1965) 122 (1956) 883 215 245 327 367 531 992 1210 1530 2930
2020-04-07 04:30 2.56 725 7600 (1965) 122 (1956) 883 215 245 327 367 531 992 1210 1530 2930
2020-04-07 04:00 2.56 725 7600 (1965) 122 (1956) 883 215 245 327 367 531 992 1210 1530 2930
2020-04-07 03:30 2.57 731 7600 (1965) 122 (1956) 883 215 245 327 367 531 992 1210 1530 2930
2020-04-07 03:00 2.57 731 7600 (1965) 122 (1956) 883 215 245 327 367 531 992 1210 1530 2930
2020-04-07 02:30 2.58 736 7600 (1965) 122 (1956) 883 215 245 327 367 531 992 1210 1530 2930
2020-04-07 02:00 2.57 731 7600 (1965) 122 (1956) 883 215 245 327 367 531 992 1210 1530 2930
2020-04-07 01:30 2.58 736 7600 (1965) 122 (1956) 883 215 245 327 367 531 992 1210 1530 2930
2020-04-07 01:00 2.57 731 7600 (1965) 122 (1956) 883 215 245 327 367 531 992 1210 1530 2930
2020-04-07 00:30 2.57 731 7600 (1965) 122 (1956) 883 215 245 327 367 531 992 1210 1530 2930
2020-04-07 00:00 2.58 736 7600 (1965) 122 (1956) 883 215 245 327 367 531 992 1210 1530 2930
2020-04-06 23:30 2.57 731 15900 (1928) 127 (1956) 1190 218 243 319 344 552 1110 1330 1870 4720
2020-04-06 23:00 2.59 742 15900 (1928) 127 (1956) 1190 218 243 319 344 552 1110 1330 1870 4720
2020-04-06 22:30 2.57 731 15900 (1928) 127 (1956) 1190 218 243 319 344 552 1110 1330 1870 4720
2020-04-06 22:00 2.59 742 15900 (1928) 127 (1956) 1190 218 243 319 344 552 1110 1330 1870 4720
2020-04-06 21:30 2.58 736 15900 (1928) 127 (1956) 1190 218 243 319 344 552 1110 1330 1870 4720
2020-04-06 21:00 2.58 736 15900 (1928) 127 (1956) 1190 218 243 319 344 552 1110 1330 1870 4720
2020-04-06 20:30 2.59 742 15900 (1928) 127 (1956) 1190 218 243 319 344 552 1110 1330 1870 4720
2020-04-06 20:00 2.59 742 15900 (1928) 127 (1956) 1190 218 243 319 344 552 1110 1330 1870 4720
2020-04-06 19:30 2.59 742 15900 (1928) 127 (1956) 1190 218 243 319 344 552 1110 1330 1870 4720
2020-04-06 19:00 2.59 742 15900 (1928) 127 (1956) 1190 218 243 319 344 552 1110 1330 1870 4720
2020-04-06 18:30 2.58 736 15900 (1928) 127 (1956) 1190 218 243 319 344 552 1110 1330 1870 4720
2020-04-06 18:00 2.58 736 15900 (1928) 127 (1956) 1190 218 243 319 344 552 1110 1330 1870 4720
2020-04-06 17:30 2.59 742 15900 (1928) 127 (1956) 1190 218 243 319 344 552 1110 1330 1870 4720
2020-04-06 17:00 2.59 742 15900 (1928) 127 (1956) 1190 218 243 319 344 552 1110 1330 1870 4720
2020-04-06 16:30 2.59 742 15900 (1928) 127 (1956) 1190 218 243 319 344 552 1110 1330 1870 4720
2020-04-06 16:00 2.59 742 15900 (1928) 127 (1956) 1190 218 243 319 344 552 1110 1330 1870 4720
2020-04-06 15:30 2.60 748 15900 (1928) 127 (1956) 1190 218 243 319 344 552 1110 1330 1870 4720
2020-04-06 15:00 2.60 748 15900 (1928) 127 (1956) 1190 218 243 319 344 552 1110 1330 1870 4720
2020-04-06 14:30 2.61 753 15900 (1928) 127 (1956) 1190 218 243 319 344 552 1110 1330 1870 4720
2020-04-06 14:00 2.60 748 15900 (1928) 127 (1956) 1190 218 243 319 344 552 1110 1330 1870 4720
2020-04-06 13:30 2.60 748 15900 (1928) 127 (1956) 1190 218 243 319 344 552 1110 1330 1870 4720
2020-04-06 13:00 2.60 748 15900 (1928) 127 (1956) 1190 218 243 319 344 552 1110 1330 1870 4720
2020-04-06 12:30 2.61 753 15900 (1928) 127 (1956) 1190 218 243 319 344 552 1110 1330 1870 4720
2020-04-06 12:00 2.60 748 15900 (1928) 127 (1956) 1190 218 243 319 344 552 1110 1330 1870 4720
2020-04-06 11:30 2.61 753 15900 (1928) 127 (1956) 1190 218 243 319 344 552 1110 1330 1870 4720
2020-04-06 11:00 2.62 758 15900 (1928) 127 (1956) 1190 218 243 319 344 552 1110 1330 1870 4720
2020-04-06 10:30 2.62 758 15900 (1928) 127 (1956) 1190 218 243 319 344 552 1110 1330 1870 4720
2020-04-06 10:00 2.62 758 15900 (1928) 127 (1956) 1190 218 243 319 344 552 1110 1330 1870 4720
2020-04-06 09:30 2.62 758 15900 (1928) 127 (1956) 1190 218 243 319 344 552 1110 1330 1870 4720
2020-04-06 09:00 2.63 763 15900 (1928) 127 (1956) 1190 218 243 319 344 552 1110 1330 1870 4720
2020-04-06 08:30 2.64 769 15900 (1928) 127 (1956) 1190 218 243 319 344 552 1110 1330 1870 4720
2020-04-06 08:00 2.64 769 15900 (1928) 127 (1956) 1190 218 243 319 344 552 1110 1330 1870 4720
2020-04-06 07:30 2.63 763 15900 (1928) 127 (1956) 1190 218 243 319 344 552 1110 1330 1870 4720
2020-04-06 07:00 2.65 774 15900 (1928) 127 (1956) 1190 218 243 319 344 552 1110 1330 1870 4720
2020-04-06 06:30 2.65 774 15900 (1928) 127 (1956) 1190 218 243 319 344 552 1110 1330 1870 4720
2020-04-06 06:00 2.64 769 15900 (1928) 127 (1956) 1190 218 243 319 344 552 1110 1330 1870 4720
2020-04-06 05:30 2.65 774 15900 (1928) 127 (1956) 1190 218 243 319 344 552 1110 1330 1870 4720
2020-04-06 05:00 2.64 769 15900 (1928) 127 (1956) 1190 218 243 319 344 552 1110 1330 1870 4720
2020-04-06 04:30 2.65 774 15900 (1928) 127 (1956) 1190 218 243 319 344 552 1110 1330 1870 4720
2020-04-06 04:00 2.65 774 15900 (1928) 127 (1956) 1190 218 243 319 344 552 1110 1330 1870 4720
2020-04-06 03:30 2.64 769 15900 (1928) 127 (1956) 1190 218 243 319 344 552 1110 1330 1870 4720
2020-04-06 03:00 2.66 779 15900 (1928) 127 (1956) 1190 218 243 319 344 552 1110 1330 1870 4720
2020-04-06 02:30 2.66 779 15900 (1928) 127 (1956) 1190 218 243 319 344 552 1110 1330 1870 4720
2020-04-06 02:00 2.66 779 15900 (1928) 127 (1956) 1190 218 243 319 344 552 1110 1330 1870 4720
2020-04-06 01:30 2.66 779 15900 (1928) 127 (1956) 1190 218 243 319 344 552 1110 1330 1870 4720
2020-04-06 01:00 2.67 785 15900 (1928) 127 (1956) 1190 218 243 319 344 552 1110 1330 1870 4720
2020-04-06 00:30 2.67 785 15900 (1928) 127 (1956) 1190 218 243 319 344 552 1110 1330 1870 4720
2020-04-06 00:00 2.65 774 15900 (1928) 127 (1956) 1190 218 243 319 344 552 1110 1330 1870 4720
2020-04-05 23:30 2.66 779 7060 (1928) 129 (1954) 1020 228 247 303 347 576 1080 1320 2490 3600
2020-04-05 23:00 2.67 785 7060 (1928) 129 (1954) 1020 228 247 303 347 576 1080 1320 2490 3600
2020-04-05 22:30 2.66 779 7060 (1928) 129 (1954) 1020 228 247 303 347 576 1080 1320 2490 3600
2020-04-05 22:00 2.66 779 7060 (1928) 129 (1954) 1020 228 247 303 347 576 1080 1320 2490 3600
2020-04-05 21:30 2.68 790 7060 (1928) 129 (1954) 1020 228 247 303 347 576 1080 1320 2490 3600
2020-04-05 21:00 2.68 790 7060 (1928) 129 (1954) 1020 228 247 303 347 576 1080 1320 2490 3600
2020-04-05 20:30 2.67 785 7060 (1928) 129 (1954) 1020 228 247 303 347 576 1080 1320 2490 3600
2020-04-05 20:00 2.66 779 7060 (1928) 129 (1954) 1020 228 247 303 347 576 1080 1320 2490 3600
2020-04-05 19:30 2.68 790 7060 (1928) 129 (1954) 1020 228 247 303 347 576 1080 1320 2490 3600
2020-04-05 19:00 2.67 785 7060 (1928) 129 (1954) 1020 228 247 303 347 576 1080 1320 2490 3600
2020-04-05 18:30 2.68 790 7060 (1928) 129 (1954) 1020 228 247 303 347 576 1080 1320 2490 3600
2020-04-05 18:00 2.68 790 7060 (1928) 129 (1954) 1020 228 247 303 347 576 1080 1320 2490 3600
2020-04-05 17:30 2.68 790 7060 (1928) 129 (1954) 1020 228 247 303 347 576 1080 1320 2490 3600
2020-04-05 17:00 2.68 790 7060 (1928) 129 (1954) 1020 228 247 303 347 576 1080 1320 2490 3600
2020-04-05 16:30 2.69 795 7060 (1928) 129 (1954) 1020 228 247 303 347 576 1080 1320 2490 3600
2020-04-05 16:00 2.69 795 7060 (1928) 129 (1954) 1020 228 247 303 347 576 1080 1320 2490 3600
2020-04-05 15:30 2.69 795 7060 (1928) 129 (1954) 1020 228 247 303 347 576 1080 1320 2490 3600
2020-04-05 15:00 2.70 801 7060 (1928) 129 (1954) 1020 228 247 303 347 576 1080 1320 2490 3600
2020-04-05 14:30 2.69 795 7060 (1928) 129 (1954) 1020 228 247 303 347 576 1080 1320 2490 3600
2020-04-05 14:00 2.70 801 7060 (1928) 129 (1954) 1020 228 247 303 347 576 1080 1320 2490 3600
2020-04-05 13:30 2.72 812 7060 (1928) 129 (1954) 1020 228 247 303 347 576 1080 1320 2490 3600
2020-04-05 13:00 2.70 801 7060 (1928) 129 (1954) 1020 228 247 303 347 576 1080 1320 2490 3600
2020-04-05 12:30 2.71 806 7060 (1928) 129 (1954) 1020 228 247 303 347 576 1080 1320 2490 3600
2020-04-05 12:00 2.71 806 7060 (1928) 129 (1954) 1020 228 247 303 347 576 1080 1320 2490 3600
2020-04-05 11:30 2.71 806 7060 (1928) 129 (1954) 1020 228 247 303 347 576 1080 1320 2490 3600
2020-04-05 11:00 2.70 801 7060 (1928) 129 (1954) 1020 228 247 303 347 576 1080 1320 2490 3600
2020-04-05 10:30 2.72 812 7060 (1928) 129 (1954) 1020 228 247 303 347 576 1080 1320 2490 3600
2020-04-05 10:00 2.72 812 7060 (1928) 129 (1954) 1020 228 247 303 347 576 1080 1320 2490 3600
2020-04-05 09:30 2.71 806 7060 (1928) 129 (1954) 1020 228 247 303 347 576 1080 1320 2490 3600
2020-04-05 09:00 2.72 812 7060 (1928) 129 (1954) 1020 228 247 303 347 576 1080 1320 2490 3600
2020-04-05 08:30 2.72 812 7060 (1928) 129 (1954) 1020 228 247 303 347 576 1080 1320 2490 3600
2020-04-05 08:00 2.73 817 7060 (1928) 129 (1954) 1020 228 247 303 347 576 1080 1320 2490 3600
2020-04-05 07:30 2.74 822 7060 (1928) 129 (1954) 1020 228 247 303 347 576 1080 1320 2490 3600
2020-04-05 07:00 2.73 817 7060 (1928) 129 (1954) 1020 228 247 303 347 576 1080 1320 2490 3600
2020-04-05 06:30 2.73 817 7060 (1928) 129 (1954) 1020 228 247 303 347 576 1080 1320 2490 3600
2020-04-05 06:00 2.75 828 7060 (1928) 129 (1954) 1020 228 247 303 347 576 1080 1320 2490 3600
2020-04-05 05:30 2.74 822 7060 (1928) 129 (1954) 1020 228 247 303 347 576 1080 1320 2490 3600
2020-04-05 05:00 2.74 822 7060 (1928) 129 (1954) 1020 228 247 303 347 576 1080 1320 2490 3600
2020-04-05 04:30 2.76 833 7060 (1928) 129 (1954) 1020 228 247 303 347 576 1080 1320 2490 3600
2020-04-05 04:00 2.75 828 7060 (1928) 129 (1954) 1020 228 247 303 347 576 1080 1320 2490 3600
2020-04-05 03:30 2.76 833 7060 (1928) 129 (1954) 1020 228 247 303 347 576 1080 1320 2490 3600
2020-04-05 03:00 2.75 828 7060 (1928) 129 (1954) 1020 228 247 303 347 576 1080 1320 2490 3600
2020-04-05 02:30 2.76 833 7060 (1928) 129 (1954) 1020 228 247 303 347 576 1080 1320 2490 3600
2020-04-05 02:00 2.76 833 7060 (1928) 129 (1954) 1020 228 247 303 347 576 1080 1320 2490 3600
2020-04-05 01:30 2.77 839 7060 (1928) 129 (1954) 1020 228 247 303 347 576 1080 1320 2490 3600
2020-04-05 01:00 2.76 833 7060 (1928) 129 (1954) 1020 228 247 303 347 576 1080 1320 2490 3600
2020-04-05 00:30 2.77 839 7060 (1928) 129 (1954) 1020 228 247 303 347 576 1080 1320 2490 3600
2020-04-05 00:00 2.76 833 7060 (1928) 129 (1954) 1020 228 247 303 347 576 1080 1320 2490 3600
2020-04-04 23:30 2.77 839 7390 (1957) 131 (1954) 908 205 241 296 326 598 1040 1220 2360 3090
2020-04-04 23:00 2.77 839 7390 (1957) 131 (1954) 908 205 241 296 326 598 1040 1220 2360 3090
2020-04-04 22:30 2.78 844 7390 (1957) 131 (1954) 908 205 241 296 326 598 1040 1220 2360 3090
2020-04-04 22:00 2.77 839 7390 (1957) 131 (1954) 908 205 241 296 326 598 1040 1220 2360 3090
2020-04-04 21:30 2.78 844 7390 (1957) 131 (1954) 908 205 241 296 326 598 1040 1220 2360 3090
2020-04-04 21:00 2.77 839 7390 (1957) 131 (1954) 908 205 241 296 326 598 1040 1220 2360 3090
2020-04-04 20:30 2.78 844 7390 (1957) 131 (1954) 908 205 241 296 326 598 1040 1220 2360 3090
2020-04-04 20:00 2.79 850 7390 (1957) 131 (1954) 908 205 241 296 326 598 1040 1220 2360 3090
2020-04-04 19:30 2.80 855 7390 (1957) 131 (1954) 908 205 241 296 326 598 1040 1220 2360 3090
2020-04-04 19:00 2.79 850 7390 (1957) 131 (1954) 908 205 241 296 326 598 1040 1220 2360 3090
2020-04-04 18:30 2.81 861 7390 (1957) 131 (1954) 908 205 241 296 326 598 1040 1220 2360 3090
2020-04-04 18:00 2.80 855 7390 (1957) 131 (1954) 908 205 241 296 326 598 1040 1220 2360 3090
2020-04-04 17:30 2.80 855 7390 (1957) 131 (1954) 908 205 241 296 326 598 1040 1220 2360 3090
2020-04-04 17:00 2.79 850 7390 (1957) 131 (1954) 908 205 241 296 326 598 1040 1220 2360 3090
2020-04-04 16:30 2.80 855 7390 (1957) 131 (1954) 908 205 241 296 326 598 1040 1220 2360 3090
2020-04-04 16:00 2.81 861 7390 (1957) 131 (1954) 908 205 241 296 326 598 1040 1220 2360 3090
2020-04-04 15:30 2.80 855 7390 (1957) 131 (1954) 908 205 241 296 326 598 1040 1220 2360 3090
2020-04-04 15:00 2.81 861 7390 (1957) 131 (1954) 908 205 241 296 326 598 1040 1220 2360 3090
2020-04-04 14:30 2.82 866 7390 (1957) 131 (1954) 908 205 241 296 326 598 1040 1220 2360 3090
2020-04-04 14:00 2.81 861 7390 (1957) 131 (1954) 908 205 241 296 326 598 1040 1220 2360 3090
2020-04-04 13:30 2.81 861 7390 (1957) 131 (1954) 908 205 241 296 326 598 1040 1220 2360 3090
2020-04-04 13:00 2.81 861 7390 (1957) 131 (1954) 908 205 241 296 326 598 1040 1220 2360 3090
2020-04-04 12:30 2.82 866 7390 (1957) 131 (1954) 908 205 241 296 326 598 1040 1220 2360 3090
2020-04-04 12:00 2.83 872 7390 (1957) 131 (1954) 908 205 241 296 326 598 1040 1220 2360 3090
2020-04-04 11:30 2.83 872 7390 (1957) 131 (1954) 908 205 241 296 326 598 1040 1220 2360 3090
2020-04-04 11:00 2.83 872 7390 (1957) 131 (1954) 908 205 241 296 326 598 1040 1220 2360 3090
2020-04-04 10:30 2.83 872 7390 (1957) 131 (1954) 908 205 241 296 326 598 1040 1220 2360 3090
2020-04-04 10:00 2.83 872 7390 (1957) 131 (1954) 908 205 241 296 326 598 1040 1220 2360 3090
2020-04-04 09:30 2.83 872 7390 (1957) 131 (1954) 908 205 241 296 326 598 1040 1220 2360 3090
2020-04-04 09:00 2.84 877 7390 (1957) 131 (1954) 908 205 241 296 326 598 1040 1220 2360 3090
2020-04-04 08:30 2.84 877 7390 (1957) 131 (1954) 908 205 241 296 326 598 1040 1220 2360 3090
2020-04-04 08:00 2.83 872 7390 (1957) 131 (1954) 908 205 241 296 326 598 1040 1220 2360 3090
2020-04-04 07:30 2.84 877 7390 (1957) 131 (1954) 908 205 241 296 326 598 1040 1220 2360 3090
2020-04-04 07:00 2.85 883 7390 (1957) 131 (1954) 908 205 241 296 326 598 1040 1220 2360 3090
2020-04-04 06:30 2.85 883 7390 (1957) 131 (1954) 908 205 241 296 326 598 1040 1220 2360 3090
2020-04-04 06:00 2.86 889 7390 (1957) 131 (1954) 908 205 241 296 326 598 1040 1220 2360 3090
2020-04-04 05:30 2.86 889 7390 (1957) 131 (1954) 908 205 241 296 326 598 1040 1220 2360 3090
2020-04-04 05:00 2.86 889 7390 (1957) 131 (1954) 908 205 241 296 326 598 1040 1220 2360 3090
2020-04-04 04:30 2.86 889 7390 (1957) 131 (1954) 908 205 241 296 326 598 1040 1220 2360 3090
2020-04-04 04:00 2.86 889 7390 (1957) 131 (1954) 908 205 241 296 326 598 1040 1220 2360 3090
2020-04-04 03:30 2.87 894 7390 (1957) 131 (1954) 908 205 241 296 326 598 1040 1220 2360 3090
2020-04-04 03:00 2.87 894 7390 (1957) 131 (1954) 908 205 241 296 326 598 1040 1220 2360 3090
2020-04-04 02:30 2.87 894 7390 (1957) 131 (1954) 908 205 241 296 326 598 1040 1220 2360 3090
2020-04-04 02:00 2.88 900 7390 (1957) 131 (1954) 908 205 241 296 326 598 1040 1220 2360 3090
2020-04-04 01:30 2.88 900 7390 (1957) 131 (1954) 908 205 241 296 326 598 1040 1220 2360 3090
2020-04-04 01:00 2.89 905 7390 (1957) 131 (1954) 908 205 241 296 326 598 1040 1220 2360 3090
2020-04-04 00:30 2.89 905 7390 (1957) 131 (1954) 908 205 241 296 326 598 1040 1220 2360 3090
2020-04-04 00:00 2.89 905 7390 (1957) 131 (1954) 908 205 241 296 326 598 1040 1220 2360 3090
2020-04-03 23:30 2.89 905 9350 (1945) 134 (1954) 876 206 244 296 344 567 932 1020 1660 2550
2020-04-03 23:00 2.89 905 9350 (1945) 134 (1954) 876 206 244 296 344 567 932 1020 1660 2550
2020-04-03 22:30 2.90 911 9350 (1945) 134 (1954) 876 206 244 296 344 567 932 1020 1660 2550
2020-04-03 22:00 2.90 911 9350 (1945) 134 (1954) 876 206 244 296 344 567 932 1020 1660 2550
2020-04-03 21:30 2.90 911 9350 (1945) 134 (1954) 876 206 244 296 344 567 932 1020 1660 2550
2020-04-03 21:00 2.90 911 9350 (1945) 134 (1954) 876 206 244 296 344 567 932 1020 1660 2550
2020-04-03 20:30 2.91 917 9350 (1945) 134 (1954) 876 206 244 296 344 567 932 1020 1660 2550
2020-04-03 20:00 2.91 917 9350 (1945) 134 (1954) 876 206 244 296 344 567 932 1020 1660 2550
2020-04-03 19:30 2.91 917 9350 (1945) 134 (1954) 876 206 244 296 344 567 932 1020 1660 2550
2020-04-03 19:00 2.91 917 9350 (1945) 134 (1954) 876 206 244 296 344 567 932 1020 1660 2550
2020-04-03 18:30 2.92 922 9350 (1945) 134 (1954) 876 206 244 296 344 567 932 1020 1660 2550
2020-04-03 18:00 2.92 922 9350 (1945) 134 (1954) 876 206 244 296 344 567 932 1020 1660 2550
2020-04-03 17:30 2.92 922 9350 (1945) 134 (1954) 876 206 244 296 344 567 932 1020 1660 2550
2020-04-03 17:00 2.92 922 9350 (1945) 134 (1954) 876 206 244 296 344 567 932 1020 1660 2550
2020-04-03 16:30 2.93 928 9350 (1945) 134 (1954) 876 206 244 296 344 567 932 1020 1660 2550
2020-04-03 16:00 2.93 928 9350 (1945) 134 (1954) 876 206 244 296 344 567 932 1020 1660 2550
2020-04-03 15:30 2.94 934 9350 (1945) 134 (1954) 876 206 244 296 344 567 932 1020 1660 2550
2020-04-03 15:00 2.93 928 9350 (1945) 134 (1954) 876 206 244 296 344 567 932 1020 1660 2550
2020-04-03 14:30 2.93 928 9350 (1945) 134 (1954) 876 206 244 296 344 567 932 1020 1660 2550
2020-04-03 14:00 2.93 928 9350 (1945) 134 (1954) 876 206 244 296 344 567 932 1020 1660 2550
2020-04-03 13:30 2.95 939 9350 (1945) 134 (1954) 876 206 244 296 344 567 932 1020 1660 2550
2020-04-03 13:00 2.94 934 9350 (1945) 134 (1954) 876 206 244 296 344 567 932 1020 1660 2550
2020-04-03 12:30 2.94 934 9350 (1945) 134 (1954) 876 206 244 296 344 567 932 1020 1660 2550
2020-04-03 12:00 2.95 939 9350 (1945) 134 (1954) 876 206 244 296 344 567 932 1020 1660 2550
2020-04-03 11:30 2.95 939 9350 (1945) 134 (1954) 876 206 244 296 344 567 932 1020 1660 2550
2020-04-03 11:00 2.95 939 9350 (1945) 134 (1954) 876 206 244 296 344 567 932 1020 1660 2550
2020-04-03 10:30 2.96 945 9350 (1945) 134 (1954) 876 206 244 296 344 567 932 1020 1660 2550
2020-04-03 10:00 2.95 939 9350 (1945) 134 (1954) 876 206 244 296 344 567 932 1020 1660 2550
2020-04-03 09:30 2.97 951 9350 (1945) 134 (1954) 876 206 244 296 344 567 932 1020 1660 2550
2020-04-03 09:00 2.97 951 9350 (1945) 134 (1954) 876 206 244 296 344 567 932 1020 1660 2550
2020-04-03 08:30 2.97 951 9350 (1945) 134 (1954) 876 206 244 296 344 567 932 1020 1660 2550
2020-04-03 08:00 2.98 956 9350 (1945) 134 (1954) 876 206 244 296 344 567 932 1020 1660 2550
2020-04-03 07:30 2.98 956 9350 (1945) 134 (1954) 876 206 244 296 344 567 932 1020 1660 2550
2020-04-03 07:00 2.99 962 9350 (1945) 134 (1954) 876 206 244 296 344 567 932 1020 1660 2550
2020-04-03 06:30 2.99 962 9350 (1945) 134 (1954) 876 206 244 296 344 567 932 1020 1660 2550
2020-04-03 06:00 3.00 968 9350 (1945) 134 (1954) 876 206 244 296 344 567 932 1020 1660 2550
2020-04-03 05:30 2.99 962 9350 (1945) 134 (1954) 876 206 244 296 344 567 932 1020 1660 2550
2020-04-03 05:00 3.00 968 9350 (1945) 134 (1954) 876 206 244 296 344 567 932 1020 1660 2550
2020-04-03 04:30 3.00 968 9350 (1945) 134 (1954) 876 206 244 296 344 567 932 1020 1660 2550
2020-04-03 04:00 3.00 968 9350 (1945) 134 (1954) 876 206 244 296 344 567 932 1020 1660 2550
2020-04-03 03:30 3.01 974 9350 (1945) 134 (1954) 876 206 244 296 344 567 932 1020 1660 2550
2020-04-03 03:00 3.01 974 9350 (1945) 134 (1954) 876 206 244 296 344 567 932 1020 1660 2550
2020-04-03 02:30 3.01 974 9350 (1945) 134 (1954) 876 206 244 296 344 567 932 1020 1660 2550
2020-04-03 02:00 3.02 980 9350 (1945) 134 (1954) 876 206 244 296 344 567 932 1020 1660 2550
2020-04-03 01:30 3.01 974 9350 (1945) 134 (1954) 876 206 244 296 344 567 932 1020 1660 2550
2020-04-03 01:00 3.02 980 9350 (1945) 134 (1954) 876 206 244 296 344 567 932 1020 1660 2550
2020-04-03 00:30 3.03 986 9350 (1945) 134 (1954) 876 206 244 296 344 567 932 1020 1660 2550
2020-04-03 00:00 3.03 986 9350 (1945) 134 (1954) 876 206 244 296 344 567 932 1020 1660 2550
2020-04-02 23:30 3.04 992 11700 (1927) 136 (1965) 957 192 239 288 344 565 1040 1220 1860 2320
2020-04-02 23:00 3.05 998 11700 (1927) 136 (1965) 957 192 239 288 344 565 1040 1220 1860 2320
2020-04-02 22:30 3.04 992 11700 (1927) 136 (1965) 957 192 239 288 344 565 1040 1220 1860 2320
2020-04-02 22:00 3.05 998 11700 (1927) 136 (1965) 957 192 239 288 344 565 1040 1220 1860 2320
2020-04-02 21:30 3.05 998 11700 (1927) 136 (1965) 957 192 239 288 344 565 1040 1220 1860 2320
2020-04-02 21:00 3.05 998 11700 (1927) 136 (1965) 957 192 239 288 344 565 1040 1220 1860 2320
2020-04-02 20:30 3.05 998 11700 (1927) 136 (1965) 957 192 239 288 344 565 1040 1220 1860 2320
2020-04-02 20:00 3.06 1000 11700 (1927) 136 (1965) 957 192 239 288 344 565 1040 1220 1860 2320
2020-04-02 19:30 3.07 1010 11700 (1927) 136 (1965) 957 192 239 288 344 565 1040 1220 1860 2320
2020-04-02 19:00 3.05 998 11700 (1927) 136 (1965) 957 192 239 288 344 565 1040 1220 1860 2320
2020-04-02 18:30 3.07 1010 11700 (1927) 136 (1965) 957 192 239 288 344 565 1040 1220 1860 2320
2020-04-02 18:00 3.07 1010 11700 (1927) 136 (1965) 957 192 239 288 344 565 1040 1220 1860 2320
2020-04-02 17:30 3.08 1020 11700 (1927) 136 (1965) 957 192 239 288 344 565 1040 1220 1860 2320
2020-04-02 17:00 3.07 1010 11700 (1927) 136 (1965) 957 192 239 288 344 565 1040 1220 1860 2320
2020-04-02 16:30 3.08 1020 11700 (1927) 136 (1965) 957 192 239 288 344 565 1040 1220 1860 2320
2020-04-02 16:00 3.09 1020 11700 (1927) 136 (1965) 957 192 239 288 344 565 1040 1220 1860 2320
2020-04-02 15:30 3.09 1020 11700 (1927) 136 (1965) 957 192 239 288 344 565 1040 1220 1860 2320
2020-04-02 15:00 3.09 1020 11700 (1927) 136 (1965) 957 192 239 288 344 565 1040 1220 1860 2320
2020-04-02 14:30 3.10 1030 11700 (1927) 136 (1965) 957 192 239 288 344 565 1040 1220 1860 2320
2020-04-02 14:00 3.10 1030 11700 (1927) 136 (1965) 957 192 239 288 344 565 1040 1220 1860 2320
2020-04-02 13:30 3.10 1030 11700 (1927) 136 (1965) 957 192 239 288 344 565 1040 1220 1860 2320
2020-04-02 13:00 3.10 1030 11700 (1927) 136 (1965) 957 192 239 288 344 565 1040 1220 1860 2320
2020-04-02 12:30 3.12 1040 11700 (1927) 136 (1965) 957 192 239 288 344 565 1040 1220 1860 2320
2020-04-02 12:00 3.11 1030 11700 (1927) 136 (1965) 957 192 239 288 344 565 1040 1220 1860 2320
2020-04-02 11:30 3.12 1040 11700 (1927) 136 (1965) 957 192 239 288 344 565 1040 1220 1860 2320
2020-04-02 11:00 3.12 1040 11700 (1927) 136 (1965) 957 192 239 288 344 565 1040 1220 1860 2320
2020-04-02 10:30 3.13 1050 11700 (1927) 136 (1965) 957 192 239 288 344 565 1040 1220 1860 2320
2020-04-02 10:00 3.14 1050 11700 (1927) 136 (1965) 957 192 239 288 344 565 1040 1220 1860 2320
2020-04-02 09:30 3.13 1050 11700 (1927) 136 (1965) 957 192 239 288 344 565 1040 1220 1860 2320
2020-04-02 09:00 3.15 1060 11700 (1927) 136 (1965) 957 192 239 288 344 565 1040 1220 1860 2320
2020-04-02 08:30 3.15 1060 11700 (1927) 136 (1965) 957 192 239 288 344 565 1040 1220 1860 2320
2020-04-02 08:00 3.15 1060 11700 (1927) 136 (1965) 957 192 239 288 344 565 1040 1220 1860 2320
2020-04-02 07:30 3.16 1060 11700 (1927) 136 (1965) 957 192 239 288 344 565 1040 1220 1860 2320
2020-04-02 07:00 3.16 1060 11700 (1927) 136 (1965) 957 192 239 288 344 565 1040 1220 1860 2320
2020-04-02 06:30 3.17 1070 11700 (1927) 136 (1965) 957 192 239 288 344 565 1040 1220 1860 2320
2020-04-02 06:00 3.16 1060 11700 (1927) 136 (1965) 957 192 239 288 344 565 1040 1220 1860 2320
2020-04-02 05:30 3.17 1070 11700 (1927) 136 (1965) 957 192 239 288 344 565 1040 1220 1860 2320
2020-04-02 05:00 3.18 1080 11700 (1927) 136 (1965) 957 192 239 288 344 565 1040 1220 1860 2320
2020-04-02 04:30 3.18 1080 11700 (1927) 136 (1965) 957 192 239 288 344 565 1040 1220 1860 2320
2020-04-02 04:00 3.19 1080 11700 (1927) 136 (1965) 957 192 239 288 344 565 1040 1220 1860 2320
2020-04-02 03:30 3.19 1080 11700 (1927) 136 (1965) 957 192 239 288 344 565 1040 1220 1860 2320
2020-04-02 03:00 3.19 1080 11700 (1927) 136 (1965) 957 192 239 288 344 565 1040 1220 1860 2320
2020-04-02 02:30 3.20 1090 11700 (1927) 136 (1965) 957 192 239 288 344 565 1040 1220 1860 2320
2020-04-02 02:00 3.20 1090 11700 (1927) 136 (1965) 957 192 239 288 344 565 1040 1220 1860 2320
2020-04-02 01:30 3.20 1090 11700 (1927) 136 (1965) 957 192 239 288 344 565 1040 1220 1860 2320
2020-04-02 01:00 3.21 1100 11700 (1927) 136 (1965) 957 192 239 288 344 565 1040 1220 1860 2320
2020-04-02 00:30 3.21 1100 11700 (1927) 136 (1965) 957 192 239 288 344 565 1040 1220 1860 2320
2020-04-02 00:00 3.22 1100 11700 (1927) 136 (1965) 957 192 239 288 344 565 1040 1220 1860 2320
2020-04-01 23:30 3.21 1100 27800 (1927) 139 (1956) 1400 203 244 304 326 614 1220 1420 2840 5070
2020-04-01 23:00 3.23 1110 27800 (1927) 139 (1956) 1400 203 244 304 326 614 1220 1420 2840 5070
2020-04-01 22:30 3.23 1110 27800 (1927) 139 (1956) 1400 203 244 304 326 614 1220 1420 2840 5070
2020-04-01 22:00 3.23 1110 27800 (1927) 139 (1956) 1400 203 244 304 326 614 1220 1420 2840 5070
2020-04-01 21:30 3.25 1120 27800 (1927) 139 (1956) 1400 203 244 304 326 614 1220 1420 2840 5070
2020-04-01 21:00 3.24 1110 27800 (1927) 139 (1956) 1400 203 244 304 326 614 1220 1420 2840 5070
2020-04-01 20:30 3.25 1120 27800 (1927) 139 (1956) 1400 203 244 304 326 614 1220 1420 2840 5070
2020-04-01 20:00 3.25 1120 27800 (1927) 139 (1956) 1400 203 244 304 326 614 1220 1420 2840 5070
2020-04-01 19:30 3.25 1120 27800 (1927) 139 (1956) 1400 203 244 304 326 614 1220 1420 2840 5070
2020-04-01 19:00 3.26 1130 27800 (1927) 139 (1956) 1400 203 244 304 326 614 1220 1420 2840 5070
2020-04-01 18:30 3.25 1120 27800 (1927) 139 (1956) 1400 203 244 304 326 614 1220 1420 2840 5070
2020-04-01 18:00 3.27 1130 27800 (1927) 139 (1956) 1400 203 244 304 326 614 1220 1420 2840 5070
2020-04-01 17:30 3.27 1130 27800 (1927) 139 (1956) 1400 203 244 304 326 614 1220 1420 2840 5070
2020-04-01 17:00 3.27 1130 27800 (1927) 139 (1956) 1400 203 244 304 326 614 1220 1420 2840 5070
2020-04-01 16:30 3.28 1140 27800 (1927) 139 (1956) 1400 203 244 304 326 614 1220 1420 2840 5070
2020-04-01 16:00 3.28 1140 27800 (1927) 139 (1956) 1400 203 244 304 326 614 1220 1420 2840 5070
2020-04-01 15:30 3.28 1140 27800 (1927) 139 (1956) 1400 203 244 304 326 614 1220 1420 2840 5070
2020-04-01 15:00 3.28 1140 27800 (1927) 139 (1956) 1400 203 244 304 326 614 1220 1420 2840 5070
2020-04-01 14:30 3.28 1140 27800 (1927) 139 (1956) 1400 203 244 304 326 614 1220 1420 2840 5070
2020-04-01 14:00 3.28 1140 27800 (1927) 139 (1956) 1400 203 244 304 326 614 1220 1420 2840 5070
2020-04-01 13:30 3.29 1150 27800 (1927) 139 (1956) 1400 203 244 304 326 614 1220 1420 2840 5070
2020-04-01 13:00 3.30 1150 27800 (1927) 139 (1956) 1400 203 244 304 326 614 1220 1420 2840 5070
2020-04-01 12:30 3.29 1150 27800 (1927) 139 (1956) 1400 203 244 304 326 614 1220 1420 2840 5070
2020-04-01 12:00 3.30 1150 27800 (1927) 139 (1956) 1400 203 244 304 326 614 1220 1420 2840 5070
2020-04-01 11:30 3.30 1150 27800 (1927) 139 (1956) 1400 203 244 304 326 614 1220 1420 2840 5070
2020-04-01 11:00 3.30 1150 27800 (1927) 139 (1956) 1400 203 244 304 326 614 1220 1420 2840 5070
2020-04-01 10:30 3.30 1150 27800 (1927) 139 (1956) 1400 203 244 304 326 614 1220 1420 2840 5070
2020-04-01 10:00 3.32 1170 27800 (1927) 139 (1956) 1400 203 244 304 326 614 1220 1420 2840 5070
2020-04-01 09:30 3.32 1170 27800 (1927) 139 (1956) 1400 203 244 304 326 614 1220 1420 2840 5070
2020-04-01 09:00 3.32 1170 27800 (1927) 139 (1956) 1400 203 244 304 326 614 1220 1420 2840 5070
2020-04-01 08:30 3.33 1170 27800 (1927) 139 (1956) 1400 203 244 304 326 614 1220 1420 2840 5070
2020-04-01 08:00 3.33 1170 27800 (1927) 139 (1956) 1400 203 244 304 326 614 1220 1420 2840 5070
2020-04-01 07:30 3.33 1170 27800 (1927) 139 (1956) 1400 203 244 304 326 614 1220 1420 2840 5070
2020-04-01 07:00 3.35 1180 27800 (1927) 139 (1956) 1400 203 244 304 326 614 1220 1420 2840 5070
2020-04-01 06:30 3.34 1180 27800 (1927) 139 (1956) 1400 203 244 304 326 614 1220 1420 2840 5070
2020-04-01 06:00 3.36 1190 27800 (1927) 139 (1956) 1400 203 244 304 326 614 1220 1420 2840 5070
2020-04-01 05:30 3.35 1180 27800 (1927) 139 (1956) 1400 203 244 304 326 614 1220 1420 2840 5070
2020-04-01 05:00 3.36 1190 27800 (1927) 139 (1956) 1400 203 244 304 326 614 1220 1420 2840 5070
2020-04-01 04:30 3.37 1200 27800 (1927) 139 (1956) 1400 203 244 304 326 614 1220 1420 2840 5070
2020-04-01 04:00 3.37 1200 27800 (1927) 139 (1956) 1400 203 244 304 326 614 1220 1420 2840 5070
2020-04-01 03:30 3.37 1200 27800 (1927) 139 (1956) 1400 203 244 304 326 614 1220 1420 2840 5070
2020-04-01 03:00 3.38 1200 27800 (1927) 139 (1956) 1400 203 244 304 326 614 1220 1420 2840 5070
2020-04-01 02:30 3.38 1200 27800 (1927) 139 (1956) 1400 203 244 304 326 614 1220 1420 2840 5070
2020-04-01 02:00 3.39 1210 27800 (1927) 139 (1956) 1400 203 244 304 326 614 1220 1420 2840 5070
2020-04-01 01:30 3.39 1210 27800 (1927) 139 (1956) 1400 203 244 304 326 614 1220 1420 2840 5070
2020-04-01 01:00 3.40 1220 27800 (1927) 139 (1956) 1400 203 244 304 326 614 1220 1420 2840 5070
2020-04-01 00:30 3.41 1220 27800 (1927) 139 (1956) 1400 203 244 304 326 614 1220 1420 2840 5070
2020-04-01 00:00 3.40 1220 27800 (1927) 139 (1956) 1400 203 244 304 326 614 1220 1420 2840 5070
2020-03-31 23:30 3.40 1220 15400 (1985) 139 (1956) 1240 217 246 298 336 625 1340 1470 3240 3870
2020-03-31 23:00 3.41 1220 15400 (1985) 139 (1956) 1240 217 246 298 336 625 1340 1470 3240 3870
2020-03-31 22:30 3.42 1230 15400 (1985) 139 (1956) 1240 217 246 298 336 625 1340 1470 3240 3870
2020-03-31 22:00 3.42 1230 15400 (1985) 139 (1956) 1240 217 246 298 336 625 1340 1470 3240 3870
2020-03-31 21:30 3.42 1230 15400 (1985) 139 (1956) 1240 217 246 298 336 625 1340 1470 3240 3870
2020-03-31 21:00 3.43 1240 15400 (1985) 139 (1956) 1240 217 246 298 336 625 1340 1470 3240 3870
2020-03-31 20:30 3.44 1240 15400 (1985) 139 (1956) 1240 217 246 298 336 625 1340 1470 3240 3870
2020-03-31 20:00 3.44 1240 15400 (1985) 139 (1956) 1240 217 246 298 336 625 1340 1470 3240 3870
2020-03-31 19:30 3.44 1240 15400 (1985) 139 (1956) 1240 217 246 298 336 625 1340 1470 3240 3870
2020-03-31 19:00 3.45 1250 15400 (1985) 139 (1956) 1240 217 246 298 336 625 1340 1470 3240 3870
2020-03-31 18:30 3.46 1260 15400 (1985) 139 (1956) 1240 217 246 298 336 625 1340 1470 3240 3870
2020-03-31 18:00 3.46 1260 15400 (1985) 139 (1956) 1240 217 246 298 336 625 1340 1470 3240 3870
2020-03-31 17:30 3.47 1260 15400 (1985) 139 (1956) 1240 217 246 298 336 625 1340 1470 3240 3870
2020-03-31 17:00 3.48 1270 15400 (1985) 139 (1956) 1240 217 246 298 336 625 1340 1470 3240 3870
2020-03-31 16:30 3.49 1280 15400 (1985) 139 (1956) 1240 217 246 298 336 625 1340 1470 3240 3870
2020-03-31 16:00 3.50 1280 15400 (1985) 139 (1956) 1240 217 246 298 336 625 1340 1470 3240 3870
2020-03-31 15:30 3.49 1280 15400 (1985) 139 (1956) 1240 217 246 298 336 625 1340 1470 3240 3870
2020-03-31 15:00 3.50 1280 15400 (1985) 139 (1956) 1240 217 246 298 336 625 1340 1470 3240 3870
2020-03-31 14:30 3.51 1290 15400 (1985) 139 (1956) 1240 217 246 298 336 625 1340 1470 3240 3870
2020-03-31 14:00 3.50 1280 15400 (1985) 139 (1956) 1240 217 246 298 336 625 1340 1470 3240 3870
2020-03-31 13:30 3.51 1290 15400 (1985) 139 (1956) 1240 217 246 298 336 625 1340 1470 3240 3870
2020-03-31 13:00 3.52 1300 15400 (1985) 139 (1956) 1240 217 246 298 336 625 1340 1470 3240 3870
2020-03-31 12:30 3.53 1300 15400 (1985) 139 (1956) 1240 217 246 298 336 625 1340 1470 3240 3870
2020-03-31 12:00 3.54 1310 15400 (1985) 139 (1956) 1240 217 246 298 336 625 1340 1470 3240 3870
2020-03-31 11:30 3.53 1300 15400 (1985) 139 (1956) 1240 217 246 298 336 625 1340 1470 3240 3870
2020-03-31 11:00 3.55 1320 15400 (1985) 139 (1956) 1240 217 246 298 336 625 1340 1470 3240 3870
2020-03-31 10:30 3.56 1320 15400 (1985) 139 (1956) 1240 217 246 298 336 625 1340 1470 3240 3870
2020-03-31 10:00 3.55 1320 15400 (1985) 139 (1956) 1240 217 246 298 336 625 1340 1470 3240 3870
2020-03-31 09:30 3.56 1320 15400 (1985) 139 (1956) 1240 217 246 298 336 625 1340 1470 3240 3870
2020-03-31 09:00 3.56 1320 15400 (1985) 139 (1956) 1240 217 246 298 336 625 1340 1470 3240 3870
2020-03-31 08:30 3.57 1330 15400 (1985) 139 (1956) 1240 217 246 298 336 625 1340 1470 3240 3870
2020-03-31 08:00 3.58 1340 15400 (1985) 139 (1956) 1240 217 246 298 336 625 1340 1470 3240 3870
2020-03-31 07:30 3.58 1340 15400 (1985) 139 (1956) 1240 217 246 298 336 625 1340 1470 3240 3870
2020-03-31 07:00 3.58 1340 15400 (1985) 139 (1956) 1240 217 246 298 336 625 1340 1470 3240 3870
2020-03-31 06:30 3.61 1360 15400 (1985) 139 (1956) 1240 217 246 298 336 625 1340 1470 3240 3870
2020-03-31 06:00 3.61 1360 15400 (1985) 139 (1956) 1240 217 246 298 336 625 1340 1470 3240 3870
2020-03-31 05:30 3.61 1360 15400 (1985) 139 (1956) 1240 217 246 298 336 625 1340 1470 3240 3870
2020-03-31 05:00 3.62 1360 15400 (1985) 139 (1956) 1240 217 246 298 336 625 1340 1470 3240 3870
2020-03-31 04:30 3.63 1370 15400 (1985) 139 (1956) 1240 217 246 298 336 625 1340 1470 3240 3870
2020-03-31 04:00 3.63 1370 15400 (1985) 139 (1956) 1240 217 246 298 336 625 1340 1470 3240 3870
2020-03-31 03:30 3.63 1370 15400 (1985) 139 (1956) 1240 217 246 298 336 625 1340 1470 3240 3870
2020-03-31 03:00 3.64 1380 15400 (1985) 139 (1956) 1240 217 246 298 336 625 1340 1470 3240 3870
2020-03-31 02:30 3.65 1380 15400 (1985) 139 (1956) 1240 217 246 298 336 625 1340 1470 3240 3870
2020-03-31 02:00 3.65 1380 15400 (1985) 139 (1956) 1240 217 246 298 336 625 1340 1470 3240 3870
2020-03-31 01:30 3.67 1400 15400 (1985) 139 (1956) 1240 217 246 298 336 625 1340 1470 3240 3870
2020-03-31 01:00 3.66 1390 15400 (1985) 139 (1956) 1240 217 246 298 336 625 1340 1470 3240 3870
2020-03-31 00:30 3.69 1410 15400 (1985) 139 (1956) 1240 217 246 298 336 625 1340 1470 3240 3870
2020-03-31 00:00 3.68 1400 15400 (1985) 139 (1956) 1240 217 246 298 336 625 1340 1470 3240 3870

A total of 378 rows are displayed for years 1923 through 2019.